sensor_id;sensor_type;location;lat;lon;timestamp;temperature;humidity
20068;DHT22;10194;50.824;7.134;2022-07-05T00:02:14;15.50;99.90
20068;DHT22;10194;50.824;7.134;2022-07-05T00:04:41;15.40;99.90
20068;DHT22;10194;50.824;7.134;2022-07-05T00:07:07;15.30;99.90
20068;DHT22;10194;50.824;7.134;2022-07-05T00:09:52;15.30;99.90
20068;DHT22;10194;50.824;7.134;2022-07-05T00:12:21;15.30;99.90
20068;DHT22;10194;50.824;7.134;2022-07-05T00:14:51;15.30;99.90
20068;DHT22;10194;50.824;7.134;2022-07-05T00:17:17;15.30;99.90
20068;DHT22;10194;50.824;7.134;2022-07-05T00:19:43;15.40;99.90
20068;DHT22;10194;50.824;7.134;2022-07-05T00:22:09;15.20;99.90
20068;DHT22;10194;50.824;7.134;2022-07-05T00:24:35;15.30;99.90
20068;DHT22;10194;50.824;7.134;2022-07-05T00:27:02;15.10;99.90
20068;DHT22;10194;50.824;7.134;2022-07-05T00:29:28;15.10;99.90
20068;DHT22;10194;50.824;7.134;2022-07-05T00:31:54;15.00;99.90
20068;DHT22;10194;50.824;7.134;2022-07-05T00:34:20;14.90;99.90
20068;DHT22;10194;50.824;7.134;2022-07-05T00:36:46;14.80;99.90
20068;DHT22;10194;50.824;7.134;2022-07-05T00:39:13;14.80;99.90
20068;DHT22;10194;50.824;7.134;2022-07-05T00:41:39;14.80;99.90
20068;DHT22;10194;50.824;7.134;2022-07-05T00:44:07;14.80;99.90
20068;DHT22;10194;50.824;7.134;2022-07-05T00:46:35;14.80;99.90
20068;DHT22;10194;50.824;7.134;2022-07-05T00:49:03;14.80;99.90
20068;DHT22;10194;50.824;7.134;2022-07-05T00:51:33;14.80;99.90
20068;DHT22;10194;50.824;7.134;2022-07-05T00:54:01;14.80;99.90
20068;DHT22;10194;50.824;7.134;2022-07-05T00:56:28;14.70;99.90
20068;DHT22;10194;50.824;7.134;2022-07-05T00:58:54;14.70;99.90
20068;DHT22;10194;50.824;7.134;2022-07-05T01:01:20;14.60;99.90
20068;DHT22;10194;50.824;7.134;2022-07-05T01:03:46;14.60;99.90
20068;DHT22;10194;50.824;7.134;2022-07-05T01:06:13;14.60;99.90
20068;DHT22;10194;50.824;7.134;2022-07-05T01:08:42;14.50;99.90
20068;DHT22;10194;50.824;7.134;2022-07-05T01:11:10;14.60;99.90
20068;DHT22;10194;50.824;7.134;2022-07-05T01:13:37;14.50;99.90
20068;DHT22;10194;50.824;7.134;2022-07-05T01:16:04;14.40;99.90
20068;DHT22;10194;50.824;7.134;2022-07-05T01:18:31;14.40;99.90
20068;DHT22;10194;50.824;7.134;2022-07-05T01:20:59;14.30;99.90
20068;DHT22;10194;50.824;7.134;2022-07-05T01:23:32;14.30;99.90
20068;DHT22;10194;50.824;7.134;2022-07-05T01:26:00;14.30;99.90
20068;DHT22;10194;50.824;7.134;2022-07-05T01:28:28;14.30;99.90
20068;DHT22;10194;50.824;7.134;2022-07-05T01:30:54;14.20;99.90
20068;DHT22;10194;50.824;7.134;2022-07-05T01:33:29;14.30;99.90
20068;DHT22;10194;50.824;7.134;2022-07-05T01:35:57;14.20;99.90
20068;DHT22;10194;50.824;7.134;2022-07-05T01:38:25;14.20;99.90
20068;DHT22;10194;50.824;7.134;2022-07-05T01:40:51;14.20;99.90
20068;DHT22;10194;50.824;7.134;2022-07-05T01:43:23;14.10;99.90
20068;DHT22;10194;50.824;7.134;2022-07-05T01:45:49;14.10;99.90
20068;DHT22;10194;50.824;7.134;2022-07-05T01:48:18;14.10;99.90
20068;DHT22;10194;50.824;7.134;2022-07-05T01:53:53;14.00;99.90
20068;DHT22;10194;50.824;7.134;2022-07-05T01:56:19;13.90;99.90
20068;DHT22;10194;50.824;7.134;2022-07-05T01:58:45;13.90;99.90
20068;DHT22;10194;50.824;7.134;2022-07-05T02:01:12;13.90;99.90
20068;DHT22;10194;50.824;7.134;2022-07-05T02:03:40;13.90;99.90
20068;DHT22;10194;50.824;7.134;2022-07-05T02:06:06;13.90;99.90
20068;DHT22;10194;50.824;7.134;2022-07-05T02:08:34;13.90;99.90
20068;DHT22;10194;50.824;7.134;2022-07-05T02:11:00;13.90;99.90
20068;DHT22;10194;50.824;7.134;2022-07-05T02:13:25;13.80;99.90
20068;DHT22;10194;50.824;7.134;2022-07-05T02:15:51;13.70;99.90
20068;DHT22;10194;50.824;7.134;2022-07-05T02:18:17;13.70;99.90
20068;DHT22;10194;50.824;7.134;2022-07-05T02:20:43;13.70;99.90
20068;DHT22;10194;50.824;7.134;2022-07-05T02:23:08;13.80;99.90
20068;DHT22;10194;50.824;7.134;2022-07-05T02:25:34;13.80;99.90
20068;DHT22;10194;50.824;7.134;2022-07-05T02:28:00;13.70;99.90
20068;DHT22;10194;50.824;7.134;2022-07-05T02:30:26;13.70;99.90
20068;DHT22;10194;50.824;7.134;2022-07-05T02:32:52;13.70;99.90
20068;DHT22;10194;50.824;7.134;2022-07-05T02:35:18;13.60;99.90
20068;DHT22;10194;50.824;7.134;2022-07-05T02:37:44;13.60;99.90
20068;DHT22;10194;50.824;7.134;2022-07-05T02:40:11;13.50;99.90
20068;DHT22;10194;50.824;7.134;2022-07-05T02:42:39;13.50;99.90
20068;DHT22;10194;50.824;7.134;2022-07-05T02:45:06;13.50;99.90
20068;DHT22;10194;50.824;7.134;2022-07-05T02:47:33;13.40;99.90
20068;DHT22;10194;50.824;7.134;2022-07-05T02:50:04;13.40;99.90
20068;DHT22;10194;50.824;7.134;2022-07-05T02:52:31;13.40;99.90
20068;DHT22;10194;50.824;7.134;2022-07-05T02:54:57;13.40;99.90
20068;DHT22;10194;50.824;7.134;2022-07-05T02:57:22;13.30;99.90
20068;DHT22;10194;50.824;7.134;2022-07-05T02:59:48;13.30;99.90
20068;DHT22;10194;50.824;7.134;2022-07-05T03:02:14;13.30;99.90
20068;DHT22;10194;50.824;7.134;2022-07-05T03:04:40;13.30;99.90
20068;DHT22;10194;50.824;7.134;2022-07-05T03:07:05;13.30;99.90
20068;DHT22;10194;50.824;7.134;2022-07-05T03:09:31;13.30;99.90
20068;DHT22;10194;50.824;7.134;2022-07-05T03:11:57;13.30;99.90
20068;DHT22;10194;50.824;7.134;2022-07-05T03:14:23;13.30;99.90
20068;DHT22;10194;50.824;7.134;2022-07-05T03:16:50;13.30;99.90
20068;DHT22;10194;50.824;7.134;2022-07-05T03:19:16;13.40;99.90
20068;DHT22;10194;50.824;7.134;2022-07-05T03:21:41;13.50;99.90
20068;DHT22;10194;50.824;7.134;2022-07-05T03:24:09;13.40;99.90
20068;DHT22;10194;50.824;7.134;2022-07-05T03:26:35;13.30;99.90
20068;DHT22;10194;50.824;7.134;2022-07-05T03:29:00;13.30;99.90
20068;DHT22;10194;50.824;7.134;2022-07-05T03:31:26;13.20;99.90
20068;DHT22;10194;50.824;7.134;2022-07-05T03:33:52;13.20;99.90
20068;DHT22;10194;50.824;7.134;2022-07-05T03:36:17;13.20;99.90
20068;DHT22;10194;50.824;7.134;2022-07-05T03:38:43;13.20;99.90
20068;DHT22;10194;50.824;7.134;2022-07-05T03:41:09;13.10;99.90
20068;DHT22;10194;50.824;7.134;2022-07-05T03:43:35;13.20;99.90
20068;DHT22;10194;50.824;7.134;2022-07-05T03:46:01;13.30;99.90
20068;DHT22;10194;50.824;7.134;2022-07-05T03:48:26;13.30;99.90
20068;DHT22;10194;50.824;7.134;2022-07-05T03:50:52;13.40;99.90
20068;DHT22;10194;50.824;7.134;2022-07-05T03:53:18;13.40;99.90
20068;DHT22;10194;50.824;7.134;2022-07-05T03:55:44;13.50;99.90
20068;DHT22;10194;50.824;7.134;2022-07-05T03:58:10;13.50;99.90
20068;DHT22;10194;50.824;7.134;2022-07-05T04:00:35;13.50;99.90
20068;DHT22;10194;50.824;7.134;2022-07-05T04:03:01;13.50;99.90
20068;DHT22;10194;50.824;7.134;2022-07-05T04:05:27;13.60;99.90
20068;DHT22;10194;50.824;7.134;2022-07-05T04:07:55;13.60;99.90
20068;DHT22;10194;50.824;7.134;2022-07-05T04:10:22;13.60;99.90
20068;DHT22;10194;50.824;7.134;2022-07-05T04:12:48;13.60;99.90
20068;DHT22;10194;50.824;7.134;2022-07-05T04:15:15;13.50;99.90
20068;DHT22;10194;50.824;7.134;2022-07-05T04:17:50;13.60;99.90
20068;DHT22;10194;50.824;7.134;2022-07-05T04:20:17;13.70;99.90
20068;DHT22;10194;50.824;7.134;2022-07-05T04:22:43;13.90;99.90
20068;DHT22;10194;50.824;7.134;2022-07-05T04:25:09;13.90;99.90
20068;DHT22;10194;50.824;7.134;2022-07-05T04:27:49;14.00;99.90
20068;DHT22;10194;50.824;7.134;2022-07-05T04:30:17;14.00;99.90
20068;DHT22;10194;50.824;7.134;2022-07-05T04:32:44;14.00;99.90
20068;DHT22;10194;50.824;7.134;2022-07-05T04:35:11;14.00;99.90
20068;DHT22;10194;50.824;7.134;2022-07-05T04:37:37;14.10;99.90
20068;DHT22;10194;50.824;7.134;2022-07-05T04:40:04;14.20;99.90
20068;DHT22;10194;50.824;7.134;2022-07-05T04:42:31;14.20;99.90
20068;DHT22;10194;50.824;7.134;2022-07-05T04:44:57;14.40;99.90
20068;DHT22;10194;50.824;7.134;2022-07-05T04:47:23;14.40;99.90
20068;DHT22;10194;50.824;7.134;2022-07-05T04:49:51;14.50;99.90
20068;DHT22;10194;50.824;7.134;2022-07-05T04:52:17;14.60;99.90
20068;DHT22;10194;50.824;7.134;2022-07-05T04:54:43;14.70;99.90
20068;DHT22;10194;50.824;7.134;2022-07-05T04:57:09;14.80;99.90
20068;DHT22;10194;50.824;7.134;2022-07-05T04:59:35;14.90;99.90
20068;DHT22;10194;50.824;7.134;2022-07-05T05:02:01;14.80;99.90
20068;DHT22;10194;50.824;7.134;2022-07-05T05:04:27;14.80;99.90
20068;DHT22;10194;50.824;7.134;2022-07-05T05:06:53;14.90;99.90
20068;DHT22;10194;50.824;7.134;2022-07-05T05:09:19;15.10;99.90
20068;DHT22;10194;50.824;7.134;2022-07-05T05:11:46;15.30;99.90
20068;DHT22;10194;50.824;7.134;2022-07-05T05:14:12;15.30;99.90
20068;DHT22;10194;50.824;7.134;2022-07-05T05:16:38;15.40;99.90
20068;DHT22;10194;50.824;7.134;2022-07-05T05:19:04;15.40;99.90
20068;DHT22;10194;50.824;7.134;2022-07-05T05:21:30;15.40;99.90
20068;DHT22;10194;50.824;7.134;2022-07-05T05:23:56;15.40;99.90
20068;DHT22;10194;50.824;7.134;2022-07-05T05:26:22;15.40;99.90
20068;DHT22;10194;50.824;7.134;2022-07-05T05:28:47;15.50;99.90
20068;DHT22;10194;50.824;7.134;2022-07-05T05:31:13;15.80;99.90
20068;DHT22;10194;50.824;7.134;2022-07-05T05:33:39;15.80;99.90
20068;DHT22;10194;50.824;7.134;2022-07-05T05:36:06;15.80;99.90
20068;DHT22;10194;50.824;7.134;2022-07-05T05:38:32;15.90;99.90
20068;DHT22;10194;50.824;7.134;2022-07-05T05:40:57;16.00;99.90
20068;DHT22;10194;50.824;7.134;2022-07-05T05:43:23;15.90;99.90
20068;DHT22;10194;50.824;7.134;2022-07-05T05:45:49;16.00;99.90
20068;DHT22;10194;50.824;7.134;2022-07-05T05:48:15;16.10;99.90
20068;DHT22;10194;50.824;7.134;2022-07-05T05:50:41;16.30;99.90
20068;DHT22;10194;50.824;7.134;2022-07-05T05:53:07;16.30;99.90
20068;DHT22;10194;50.824;7.134;2022-07-05T05:55:34;16.40;99.90
20068;DHT22;10194;50.824;7.134;2022-07-05T05:58:19;16.60;99.90
20068;DHT22;10194;50.824;7.134;2022-07-05T06:00:47;16.70;99.90
20068;DHT22;10194;50.824;7.134;2022-07-05T06:03:17;16.90;99.90
20068;DHT22;10194;50.824;7.134;2022-07-05T06:05:46;16.90;99.90
20068;DHT22;10194;50.824;7.134;2022-07-05T06:08:12;16.90;99.90
20068;DHT22;10194;50.824;7.134;2022-07-05T06:10:38;17.10;99.90
20068;DHT22;10194;50.824;7.134;2022-07-05T06:13:07;17.10;99.90
20068;DHT22;10194;50.824;7.134;2022-07-05T06:15:35;17.10;99.90
20068;DHT22;10194;50.824;7.134;2022-07-05T06:18:01;17.20;99.90
20068;DHT22;10194;50.824;7.134;2022-07-05T06:20:29;17.50;99.90
20068;DHT22;10194;50.824;7.134;2022-07-05T06:22:57;17.60;99.90
20068;DHT22;10194;50.824;7.134;2022-07-05T06:25:24;17.80;99.90
20068;DHT22;10194;50.824;7.134;2022-07-05T06:27:57;17.90;99.90
20068;DHT22;10194;50.824;7.134;2022-07-05T06:30:29;17.90;99.90
20068;DHT22;10194;50.824;7.134;2022-07-05T06:32:56;17.90;99.90
20068;DHT22;10194;50.824;7.134;2022-07-05T06:35:23;17.90;99.90
20068;DHT22;10194;50.824;7.134;2022-07-05T06:40:25;18.10;99.90
20068;DHT22;10194;50.824;7.134;2022-07-05T06:42:52;18.30;99.90
20068;DHT22;10194;50.824;7.134;2022-07-05T06:45:20;18.60;99.90
20068;DHT22;10194;50.824;7.134;2022-07-05T06:48:00;18.80;99.90
20068;DHT22;10194;50.824;7.134;2022-07-05T06:50:29;19.10;99.90
20068;DHT22;10194;50.824;7.134;2022-07-05T06:52:56;19.10;99.90
20068;DHT22;10194;50.824;7.134;2022-07-05T06:55:22;19.20;99.90
20068;DHT22;10194;50.824;7.134;2022-07-05T06:57:49;19.30;99.90
20068;DHT22;10194;50.824;7.134;2022-07-05T07:00:18;19.20;99.90
20068;DHT22;10194;50.824;7.134;2022-07-05T07:02:44;19.30;99.90
20068;DHT22;10194;50.824;7.134;2022-07-05T07:05:10;19.80;99.90
20068;DHT22;10194;50.824;7.134;2022-07-05T07:07:36;20.40;99.90
20068;DHT22;10194;50.824;7.134;2022-07-05T07:10:20;21.00;99.90
20068;DHT22;10194;50.824;7.134;2022-07-05T07:12:46;21.20;99.90
20068;DHT22;10194;50.824;7.134;2022-07-05T07:15:12;22.10;99.90
20068;DHT22;10194;50.824;7.134;2022-07-05T07:17:37;22.50;97.70
20068;DHT22;10194;50.824;7.134;2022-07-05T07:20:03;22.40;96.80
20068;DHT22;10194;50.824;7.134;2022-07-05T07:22:29;23.10;97.50
20068;DHT22;10194;50.824;7.134;2022-07-05T07:24:55;23.50;95.00
20068;DHT22;10194;50.824;7.134;2022-07-05T07:27:21;23.90;93.00
20068;DHT22;10194;50.824;7.134;2022-07-05T07:29:47;24.40;92.90
20068;DHT22;10194;50.824;7.134;2022-07-05T07:32:13;24.90;91.40
20068;DHT22;10194;50.824;7.134;2022-07-05T07:34:38;25.30;89.80
20068;DHT22;10194;50.824;7.134;2022-07-05T07:37:05;25.40;90.00
20068;DHT22;10194;50.824;7.134;2022-07-05T07:39:31;25.50;89.70
20068;DHT22;10194;50.824;7.134;2022-07-05T07:41:57;25.50;89.10
20068;DHT22;10194;50.824;7.134;2022-07-05T07:44:23;25.50;91.30
20068;DHT22;10194;50.824;7.134;2022-07-05T07:46:49;25.70;87.10
20068;DHT22;10194;50.824;7.134;2022-07-05T07:49:16;25.90;88.90
20068;DHT22;10194;50.824;7.134;2022-07-05T07:51:42;25.40;88.80
20068;DHT22;10194;50.824;7.134;2022-07-05T07:54:08;25.50;87.70
20068;DHT22;10194;50.824;7.134;2022-07-05T07:56:34;25.10;86.40
20068;DHT22;10194;50.824;7.134;2022-07-05T07:59:00;24.80;88.90
20068;DHT22;10194;50.824;7.134;2022-07-05T08:01:26;24.60;86.40
20068;DHT22;10194;50.824;7.134;2022-07-05T08:03:52;24.20;90.10
20068;DHT22;10194;50.824;7.134;2022-07-05T08:06:18;24.40;89.80
20068;DHT22;10194;50.824;7.134;2022-07-05T08:08:44;24.20;87.70
20068;DHT22;10194;50.824;7.134;2022-07-05T08:11:12;23.90;90.20
20068;DHT22;10194;50.824;7.134;2022-07-05T08:13:38;23.90;90.60
20068;DHT22;10194;50.824;7.134;2022-07-05T08:16:09;23.90;93.80
20068;DHT22;10194;50.824;7.134;2022-07-05T08:18:36;23.80;91.30
20068;DHT22;10194;50.824;7.134;2022-07-05T08:21:20;24.00;92.60
20068;DHT22;10194;50.824;7.134;2022-07-05T08:24:07;24.00;88.40
20068;DHT22;10194;50.824;7.134;2022-07-05T08:26:35;23.90;94.20
20068;DHT22;10194;50.824;7.134;2022-07-05T08:29:04;24.10;90.10
20068;DHT22;10194;50.824;7.134;2022-07-05T08:31:33;24.70;90.60
20068;DHT22;10194;50.824;7.134;2022-07-05T08:34:00;24.30;91.00
20068;DHT22;10194;50.824;7.134;2022-07-05T08:36:26;23.70;87.30
20068;DHT22;10194;50.824;7.134;2022-07-05T08:38:52;23.90;88.50
20068;DHT22;10194;50.824;7.134;2022-07-05T08:41:20;23.60;91.10
20068;DHT22;10194;50.824;7.134;2022-07-05T08:43:48;23.80;89.50
20068;DHT22;10194;50.824;7.134;2022-07-05T08:46:15;23.70;90.50
20068;DHT22;10194;50.824;7.134;2022-07-05T08:48:43;24.00;87.60
20068;DHT22;10194;50.824;7.134;2022-07-05T08:51:20;23.90;88.50
20068;DHT22;10194;50.824;7.134;2022-07-05T08:53:48;24.20;90.00
20068;DHT22;10194;50.824;7.134;2022-07-05T08:56:18;24.60;90.10
20068;DHT22;10194;50.824;7.134;2022-07-05T08:58:44;25.10;89.80
20068;DHT22;10194;50.824;7.134;2022-07-05T09:01:11;25.10;82.60
20068;DHT22;10194;50.824;7.134;2022-07-05T09:03:47;25.00;85.10
20068;DHT22;10194;50.824;7.134;2022-07-05T09:06:21;24.70;82.50
20068;DHT22;10194;50.824;7.134;2022-07-05T09:08:50;24.30;81.50
20068;DHT22;10194;50.824;7.134;2022-07-05T09:11:18;24.30;83.00
20068;DHT22;10194;50.824;7.134;2022-07-05T09:13:51;24.80;87.70
20068;DHT22;10194;50.824;7.134;2022-07-05T09:16:17;25.20;81.70
20068;DHT22;10194;50.824;7.134;2022-07-05T09:18:51;24.70;81.30
20068;DHT22;10194;50.824;7.134;2022-07-05T09:21:24;25.00;81.00
20068;DHT22;10194;50.824;7.134;2022-07-05T09:23:58;25.10;83.60
20068;DHT22;10194;50.824;7.134;2022-07-05T09:29:03;25.10;77.90
20068;DHT22;10194;50.824;7.134;2022-07-05T09:31:38;25.10;77.40
20068;DHT22;10194;50.824;7.134;2022-07-05T09:34:06;25.20;77.10
20068;DHT22;10194;50.824;7.134;2022-07-05T09:36:58;25.50;81.60
20068;DHT22;10194;50.824;7.134;2022-07-05T09:42:18;25.80;72.90
20068;DHT22;10194;50.824;7.134;2022-07-05T09:44:50;25.60;77.20
20068;DHT22;10194;50.824;7.134;2022-07-05T09:47:24;25.10;77.20
20068;DHT22;10194;50.824;7.134;2022-07-05T09:49:59;24.40;78.80
20068;DHT22;10194;50.824;7.134;2022-07-05T09:52:37;23.70;80.50
20068;DHT22;10194;50.824;7.134;2022-07-05T09:55:11;23.40;82.30
20068;DHT22;10194;50.824;7.134;2022-07-05T09:57:39;24.10;81.40
20068;DHT22;10194;50.824;7.134;2022-07-05T10:00:15;24.50;80.40
20068;DHT22;10194;50.824;7.134;2022-07-05T10:02:47;25.10;79.60
20068;DHT22;10194;50.824;7.134;2022-07-05T10:05:19;25.50;75.80
20068;DHT22;10194;50.824;7.134;2022-07-05T10:07:48;25.50;75.00
20068;DHT22;10194;50.824;7.134;2022-07-05T10:10:19;24.30;76.60
20068;DHT22;10194;50.824;7.134;2022-07-05T10:12:48;23.70;79.20
20068;DHT22;10194;50.824;7.134;2022-07-05T10:15:21;24.30;81.00
20068;DHT22;10194;50.824;7.134;2022-07-05T10:18:08;24.80;77.80
20068;DHT22;10194;50.824;7.134;2022-07-05T10:20:44;25.10;79.70
20068;DHT22;10194;50.824;7.134;2022-07-05T10:23:18;25.00;73.50
20068;DHT22;10194;50.824;7.134;2022-07-05T10:25:49;24.70;75.20
20068;DHT22;10194;50.824;7.134;2022-07-05T10:28:20;24.20;74.00
20068;DHT22;10194;50.824;7.134;2022-07-05T10:30:48;23.70;78.00
20068;DHT22;10194;50.824;7.134;2022-07-05T10:33:18;23.60;75.50
20068;DHT22;10194;50.824;7.134;2022-07-05T10:35:50;23.40;77.10
20068;DHT22;10194;50.824;7.134;2022-07-05T10:38:17;23.70;78.20
20068;DHT22;10194;50.824;7.134;2022-07-05T10:40:46;24.00;74.70
20068;DHT22;10194;50.824;7.134;2022-07-05T10:43:16;24.70;76.00
20068;DHT22;10194;50.824;7.134;2022-07-05T10:45:49;24.80;76.60
20068;DHT22;10194;50.824;7.134;2022-07-05T10:48:20;24.80;73.80
20068;DHT22;10194;50.824;7.134;2022-07-05T10:58:42;23.80;74.20
20068;DHT22;10194;50.824;7.134;2022-07-05T11:12:03;25.00;68.80
20068;DHT22;10194;50.824;7.134;2022-07-05T11:14:32;25.10;68.40
20068;DHT22;10194;50.824;7.134;2022-07-05T11:19:47;25.30;70.10
20068;DHT22;10194;50.824;7.134;2022-07-05T11:22:24;25.50;68.80
20068;DHT22;10194;50.824;7.134;2022-07-05T11:24:51;25.30;71.30
20068;DHT22;10194;50.824;7.134;2022-07-05T11:27:17;24.90;67.10
20068;DHT22;10194;50.824;7.134;2022-07-05T11:35:18;24.50;69.00
20068;DHT22;10194;50.824;7.134;2022-07-05T11:38:08;24.90;68.70
20068;DHT22;10194;50.824;7.134;2022-07-05T11:40:35;25.20;70.70
20068;DHT22;10194;50.824;7.134;2022-07-05T11:43:04;25.30;70.90
20068;DHT22;10194;50.824;7.134;2022-07-05T11:45:32;25.30;68.60
20068;DHT22;10194;50.824;7.134;2022-07-05T11:47:59;24.80;70.60
20068;DHT22;10194;50.824;7.134;2022-07-05T11:50:26;24.40;69.90
20068;DHT22;10194;50.824;7.134;2022-07-05T11:52:56;24.20;69.40
20068;DHT22;10194;50.824;7.134;2022-07-05T11:55:25;24.20;70.30
20068;DHT22;10194;50.824;7.134;2022-07-05T11:57:53;24.50;69.60
20068;DHT22;10194;50.824;7.134;2022-07-05T12:00:27;24.40;69.80
20068;DHT22;10194;50.824;7.134;2022-07-05T12:02:54;24.70;71.50
20068;DHT22;10194;50.824;7.134;2022-07-05T12:05:20;24.30;69.80
20068;DHT22;10194;50.824;7.134;2022-07-05T12:07:50;23.90;70.10
20068;DHT22;10194;50.824;7.134;2022-07-05T12:10:17;23.60;72.00
20068;DHT22;10194;50.824;7.134;2022-07-05T12:13:08;23.80;72.90
20068;DHT22;10194;50.824;7.134;2022-07-05T12:15:36;24.10;69.50
20068;DHT22;10194;50.824;7.134;2022-07-05T12:18:04;24.30;73.00
20068;DHT22;10194;50.824;7.134;2022-07-05T12:20:32;24.30;68.60
20068;DHT22;10194;50.824;7.134;2022-07-05T12:22:59;24.10;69.20
20068;DHT22;10194;50.824;7.134;2022-07-05T12:25:27;24.20;73.20
20068;DHT22;10194;50.824;7.134;2022-07-05T12:27:56;24.50;68.90
20068;DHT22;10194;50.824;7.134;2022-07-05T12:30:23;24.70;69.10
20068;DHT22;10194;50.824;7.134;2022-07-05T12:32:59;24.80;68.90
20068;DHT22;10194;50.824;7.134;2022-07-05T12:35:34;24.90;68.10
20068;DHT22;10194;50.824;7.134;2022-07-05T12:38:14;24.90;70.00
20068;DHT22;10194;50.824;7.134;2022-07-05T12:40:43;24.40;71.70
20068;DHT22;10194;50.824;7.134;2022-07-05T12:43:18;24.10;70.50
20068;DHT22;10194;50.824;7.134;2022-07-05T12:46:02;23.80;70.90
20068;DHT22;10194;50.824;7.134;2022-07-05T12:48:39;23.90;71.80
20068;DHT22;10194;50.824;7.134;2022-07-05T12:51:07;24.10;70.50
20068;DHT22;10194;50.824;7.134;2022-07-05T12:53:34;24.10;69.60
20068;DHT22;10194;50.824;7.134;2022-07-05T12:56:23;24.30;69.40
20068;DHT22;10194;50.824;7.134;2022-07-05T12:59:09;24.50;69.10
20068;DHT22;10194;50.824;7.134;2022-07-05T13:01:42;24.30;68.20
20068;DHT22;10194;50.824;7.134;2022-07-05T13:04:16;24.30;70.10
20068;DHT22;10194;50.824;7.134;2022-07-05T13:06:57;23.90;73.70
20068;DHT22;10194;50.824;7.134;2022-07-05T13:12:19;23.40;70.80
20068;DHT22;10194;50.824;7.134;2022-07-05T13:14:53;23.30;72.80
20068;DHT22;10194;50.824;7.134;2022-07-05T13:17:21;23.40;73.30
20068;DHT22;10194;50.824;7.134;2022-07-05T13:19:49;23.50;71.50
20068;DHT22;10194;50.824;7.134;2022-07-05T13:22:16;23.80;73.10
20068;DHT22;10194;50.824;7.134;2022-07-05T13:24:43;23.80;69.90
20068;DHT22;10194;50.824;7.134;2022-07-05T13:27:10;24.00;68.20
20068;DHT22;10194;50.824;7.134;2022-07-05T13:29:37;24.20;68.40
20068;DHT22;10194;50.824;7.134;2022-07-05T13:32:03;24.60;71.40
20068;DHT22;10194;50.824;7.134;2022-07-05T13:34:30;24.50;67.50
20068;DHT22;10194;50.824;7.134;2022-07-05T13:36:56;24.00;67.00
20068;DHT22;10194;50.824;7.134;2022-07-05T13:39:23;23.80;67.80
20068;DHT22;10194;50.824;7.134;2022-07-05T13:41:51;24.00;71.30
20068;DHT22;10194;50.824;7.134;2022-07-05T13:44:18;24.20;67.90
20068;DHT22;10194;50.824;7.134;2022-07-05T13:46:44;24.00;66.80
20068;DHT22;10194;50.824;7.134;2022-07-05T13:49:10;24.10;68.50
20068;DHT22;10194;50.824;7.134;2022-07-05T13:51:36;24.20;69.00
20068;DHT22;10194;50.824;7.134;2022-07-05T13:54:02;24.10;67.90
20068;DHT22;10194;50.824;7.134;2022-07-05T13:56:29;24.00;66.70
20068;DHT22;10194;50.824;7.134;2022-07-05T13:58:57;24.20;70.50
20068;DHT22;10194;50.824;7.134;2022-07-05T14:01:23;24.30;68.80
20068;DHT22;10194;50.824;7.134;2022-07-05T14:03:56;24.40;65.70
20068;DHT22;10194;50.824;7.134;2022-07-05T14:06:24;24.50;69.00
20068;DHT22;10194;50.824;7.134;2022-07-05T14:08:51;24.40;67.50
20068;DHT22;10194;50.824;7.134;2022-07-05T14:11:16;24.20;70.30
20068;DHT22;10194;50.824;7.134;2022-07-05T14:13:42;24.10;67.40
20068;DHT22;10194;50.824;7.134;2022-07-05T14:16:08;23.80;67.90
20068;DHT22;10194;50.824;7.134;2022-07-05T14:18:34;23.80;68.70
20068;DHT22;10194;50.824;7.134;2022-07-05T14:21:00;23.90;68.50
20068;DHT22;10194;50.824;7.134;2022-07-05T14:23:27;24.10;67.00
20068;DHT22;10194;50.824;7.134;2022-07-05T14:25:52;24.20;67.40
20068;DHT22;10194;50.824;7.134;2022-07-05T14:28:18;24.40;65.10
20068;DHT22;10194;50.824;7.134;2022-07-05T14:30:45;24.40;66.90
20068;DHT22;10194;50.824;7.134;2022-07-05T14:33:13;24.70;66.30
20068;DHT22;10194;50.824;7.134;2022-07-05T14:35:40;24.50;65.20
20068;DHT22;10194;50.824;7.134;2022-07-05T14:38:07;24.20;66.70
20068;DHT22;10194;50.824;7.134;2022-07-05T14:40:33;24.30;67.00
20068;DHT22;10194;50.824;7.134;2022-07-05T14:43:00;24.20;67.50
20068;DHT22;10194;50.824;7.134;2022-07-05T14:45:27;24.10;67.60
20068;DHT22;10194;50.824;7.134;2022-07-05T14:47:54;24.10;70.40
20068;DHT22;10194;50.824;7.134;2022-07-05T14:50:20;24.00;68.30
20068;DHT22;10194;50.824;7.134;2022-07-05T14:52:47;23.80;68.20
20068;DHT22;10194;50.824;7.134;2022-07-05T14:55:14;23.70;67.40
20068;DHT22;10194;50.824;7.134;2022-07-05T14:57:41;23.60;68.90
20068;DHT22;10194;50.824;7.134;2022-07-05T15:00:09;23.70;69.60
20068;DHT22;10194;50.824;7.134;2022-07-05T15:02:36;23.70;68.50
20068;DHT22;10194;50.824;7.134;2022-07-05T15:05:03;23.80;69.00
20068;DHT22;10194;50.824;7.134;2022-07-05T15:07:29;24.10;69.70
20068;DHT22;10194;50.824;7.134;2022-07-05T15:09:55;24.20;68.70
20068;DHT22;10194;50.824;7.134;2022-07-05T15:12:21;24.20;68.10
20068;DHT22;10194;50.824;7.134;2022-07-05T15:14:47;24.10;68.50
20068;DHT22;10194;50.824;7.134;2022-07-05T15:17:13;24.20;68.70
20068;DHT22;10194;50.824;7.134;2022-07-05T15:19:39;24.20;68.70
20068;DHT22;10194;50.824;7.134;2022-07-05T15:22:06;24.00;68.20
20068;DHT22;10194;50.824;7.134;2022-07-05T15:24:32;23.90;68.50
20068;DHT22;10194;50.824;7.134;2022-07-05T15:27:00;23.80;67.70
20068;DHT22;10194;50.824;7.134;2022-07-05T15:29:26;23.80;69.80
20068;DHT22;10194;50.824;7.134;2022-07-05T15:31:54;23.70;69.20
20068;DHT22;10194;50.824;7.134;2022-07-05T15:34:20;23.80;71.50
20068;DHT22;10194;50.824;7.134;2022-07-05T15:36:46;24.00;70.20
20068;DHT22;10194;50.824;7.134;2022-07-05T15:39:11;23.90;68.10
20068;DHT22;10194;50.824;7.134;2022-07-05T15:41:37;23.90;68.10
20068;DHT22;10194;50.824;7.134;2022-07-05T15:44:03;24.20;70.00
20068;DHT22;10194;50.824;7.134;2022-07-05T15:46:29;24.30;67.70
20068;DHT22;10194;50.824;7.134;2022-07-05T15:49:16;24.30;68.00
20068;DHT22;10194;50.824;7.134;2022-07-05T15:51:42;24.50;70.20
20068;DHT22;10194;50.824;7.134;2022-07-05T15:54:08;24.70;68.50
20068;DHT22;10194;50.824;7.134;2022-07-05T15:56:34;24.90;64.50
20068;DHT22;10194;50.824;7.134;2022-07-05T15:59:00;25.00;64.30
20068;DHT22;10194;50.824;7.134;2022-07-05T16:01:26;24.70;63.40
20068;DHT22;10194;50.824;7.134;2022-07-05T16:03:52;24.50;64.90
20068;DHT22;10194;50.824;7.134;2022-07-05T16:06:18;24.50;65.20
20068;DHT22;10194;50.824;7.134;2022-07-05T16:08:44;24.60;66.40
20068;DHT22;10194;50.824;7.134;2022-07-05T16:11:09;24.50;67.10
20068;DHT22;10194;50.824;7.134;2022-07-05T16:13:35;24.50;66.10
20068;DHT22;10194;50.824;7.134;2022-07-05T16:16:01;24.20;65.20
20068;DHT22;10194;50.824;7.134;2022-07-05T16:18:36;24.10;65.30